Terminal Aerodrome Forecast
Issued by NWS Shreveport, LA

Current Version | Previous Version | Text Only | Print | Product List | Glossary On
Versions: 1 2 3 4 5 6 7 8 9 10 11 12 13 14 15 16
666
FTUS44 KSHV 270523
TAFMLU
TAF
KMLU 270523Z 2706/2806 16006KT P6SM SCT020 BKN100
      TEMPO 2706/2710 BKN015
     FM271800 17012G20KT P6SM VCTS BKN040CB
     FM280000 18008KT P6SM VCTS BKN050CB=

USA.gov is the U.S. government's official web portal to all federal, state and local government web resources and services.